sensor_id;sensor_type;location;lat;lon;timestamp;P1;durP1;ratioP1;P2;durP2;ratioP2
33644;SDS011;19986;48.190;16.366;2023-05-10T00:00:55;39.80;;;37.70;;
33644;SDS011;19986;48.190;16.366;2023-05-10T00:03:21;40.65;;;38.30;;
33644;SDS011;19986;48.190;16.366;2023-05-10T00:05:47;38.90;;;36.88;;
33644;SDS011;19986;48.190;16.366;2023-05-10T00:08:14;39.78;;;37.78;;
33644;SDS011;19986;48.190;16.366;2023-05-10T00:10:40;41.08;;;39.08;;
33644;SDS011;19986;48.190;16.366;2023-05-10T00:13:06;42.22;;;40.13;;
33644;SDS011;19986;48.190;16.366;2023-05-10T00:15:32;41.58;;;39.38;;
33644;SDS011;19986;48.190;16.366;2023-05-10T00:17:59;41.17;;;39.08;;
33644;SDS011;19986;48.190;16.366;2023-05-10T00:20:25;40.88;;;38.70;;
33644;SDS011;19986;48.190;16.366;2023-05-10T00:22:51;41.42;;;39.25;;
33644;SDS011;19986;48.190;16.366;2023-05-10T00:25:18;41.97;;;39.47;;
33644;SDS011;19986;48.190;16.366;2023-05-10T00:27:45;40.50;;;38.35;;
33644;SDS011;19986;48.190;16.366;2023-05-10T00:30:11;42.28;;;40.00;;
33644;SDS011;19986;48.190;16.366;2023-05-10T00:32:37;39.40;;;37.40;;
33644;SDS011;19986;48.190;16.366;2023-05-10T00:35:03;41.30;;;39.30;;
33644;SDS011;19986;48.190;16.366;2023-05-10T00:37:29;42.03;;;39.97;;
33644;SDS011;19986;48.190;16.366;2023-05-10T00:39:55;41.50;;;39.33;;
33644;SDS011;19986;48.190;16.366;2023-05-10T00:42:21;41.45;;;39.25;;
33644;SDS011;19986;48.190;16.366;2023-05-10T00:44:47;40.78;;;38.70;;
33644;SDS011;19986;48.190;16.366;2023-05-10T00:47:16;42.72;;;40.42;;
33644;SDS011;19986;48.190;16.366;2023-05-10T00:49:42;40.47;;;38.58;;
33644;SDS011;19986;48.190;16.366;2023-05-10T00:52:09;41.30;;;39.10;;
33644;SDS011;19986;48.190;16.366;2023-05-10T00:54:35;40.25;;;38.15;;
33644;SDS011;19986;48.190;16.366;2023-05-10T00:57:01;42.42;;;40.10;;
33644;SDS011;19986;48.190;16.366;2023-05-10T00:59:28;41.28;;;39.08;;
33644;SDS011;19986;48.190;16.366;2023-05-10T01:01:55;40.47;;;38.38;;
33644;SDS011;19986;48.190;16.366;2023-05-10T01:04:21;41.38;;;38.95;;
33644;SDS011;19986;48.190;16.366;2023-05-10T01:06:51;41.83;;;39.58;;
33644;SDS011;19986;48.190;16.366;2023-05-10T01:09:18;41.80;;;39.50;;
33644;SDS011;19986;48.190;16.366;2023-05-10T01:11:44;42.22;;;40.13;;
33644;SDS011;19986;48.190;16.366;2023-05-10T01:14:11;41.83;;;39.63;;
33644;SDS011;19986;48.190;16.366;2023-05-10T01:16:37;41.90;;;39.70;;
33644;SDS011;19986;48.190;16.366;2023-05-10T01:19:06;44.65;;;42.42;;
33644;SDS011;19986;48.190;16.366;2023-05-10T01:24:40;41.42;;;39.22;;
33644;SDS011;19986;48.190;16.366;2023-05-10T01:38:55;41.72;;;39.65;;
33644;SDS011;19986;48.190;16.366;2023-05-10T01:41:49;41.70;;;39.60;;
33644;SDS011;19986;48.190;16.366;2023-05-10T01:46:54;43.25;;;40.90;;
33644;SDS011;19986;48.190;16.366;2023-05-10T01:49:30;41.53;;;39.45;;
33644;SDS011;19986;48.190;16.366;2023-05-10T01:52:04;43.17;;;40.88;;
33644;SDS011;19986;48.190;16.366;2023-05-10T01:54:33;41.35;;;39.05;;
33644;SDS011;19986;48.190;16.366;2023-05-10T01:57:03;42.22;;;39.90;;
33644;SDS011;19986;48.190;16.366;2023-05-10T01:59:34;39.03;;;37.13;;
33644;SDS011;19986;48.190;16.366;2023-05-10T02:02:02;42.80;;;40.70;;
33644;SDS011;19986;48.190;16.366;2023-05-10T02:04:31;42.42;;;40.13;;
33644;SDS011;19986;48.190;16.366;2023-05-10T02:07:00;42.13;;;39.80;;
33644;SDS011;19986;48.190;16.366;2023-05-10T02:09:27;42.25;;;40.05;;
33644;SDS011;19986;48.190;16.366;2023-05-10T02:11:55;43.47;;;41.17;;
33644;SDS011;19986;48.190;16.366;2023-05-10T02:14:23;42.80;;;40.60;;
33644;SDS011;19986;48.190;16.366;2023-05-10T02:16:52;41.58;;;39.47;;
33644;SDS011;19986;48.190;16.366;2023-05-10T02:19:18;43.33;;;41.03;;
33644;SDS011;19986;48.190;16.366;2023-05-10T02:21:47;43.45;;;41.03;;
33644;SDS011;19986;48.190;16.366;2023-05-10T02:24:17;44.33;;;42.03;;
33644;SDS011;19986;48.190;16.366;2023-05-10T02:26:45;43.22;;;40.75;;
33644;SDS011;19986;48.190;16.366;2023-05-10T02:29:13;42.58;;;40.30;;
33644;SDS011;19986;48.190;16.366;2023-05-10T02:31:40;41.67;;;39.50;;
33644;SDS011;19986;48.190;16.366;2023-05-10T02:34:08;43.08;;;40.92;;
33644;SDS011;19986;48.190;16.366;2023-05-10T02:36:36;40.65;;;38.55;;
33644;SDS011;19986;48.190;16.366;2023-05-10T02:39:04;41.40;;;39.28;;
33644;SDS011;19986;48.190;16.366;2023-05-10T02:41:34;41.78;;;39.45;;
33644;SDS011;19986;48.190;16.366;2023-05-10T02:44:01;42.65;;;40.35;;
33644;SDS011;19986;48.190;16.366;2023-05-10T02:46:29;41.85;;;39.58;;
33644;SDS011;19986;48.190;16.366;2023-05-10T02:48:55;42.97;;;40.88;;
33644;SDS011;19986;48.190;16.366;2023-05-10T02:51:21;44.05;;;41.75;;
33644;SDS011;19986;48.190;16.366;2023-05-10T02:53:53;43.45;;;40.92;;
33644;SDS011;19986;48.190;16.366;2023-05-10T02:56:23;42.95;;;40.75;;
33644;SDS011;19986;48.190;16.366;2023-05-10T02:58:53;42.95;;;40.75;;
33644;SDS011;19986;48.190;16.366;2023-05-10T03:01:20;47.13;;;44.70;;
33644;SDS011;19986;48.190;16.366;2023-05-10T03:03:46;42.63;;;40.33;;
33644;SDS011;19986;48.190;16.366;2023-05-10T03:06:12;43.13;;;40.85;;
33644;SDS011;19986;48.190;16.366;2023-05-10T03:08:38;43.55;;;41.22;;
33644;SDS011;19986;48.190;16.366;2023-05-10T03:16:42;42.33;;;39.85;;
33644;SDS011;19986;48.190;16.366;2023-05-10T03:19:19;44.55;;;41.85;;
33644;SDS011;19986;48.190;16.366;2023-05-10T03:21:53;41.40;;;39.20;;
33644;SDS011;19986;48.190;16.366;2023-05-10T03:24:21;44.85;;;42.45;;
33644;SDS011;19986;48.190;16.366;2023-05-10T03:26:52;41.67;;;39.58;;
33644;SDS011;19986;48.190;16.366;2023-05-10T03:29:22;44.58;;;41.92;;
33644;SDS011;19986;48.190;16.366;2023-05-10T03:31:51;42.20;;;39.90;;
33644;SDS011;19986;48.190;16.366;2023-05-10T03:34:16;44.55;;;41.78;;
33644;SDS011;19986;48.190;16.366;2023-05-10T03:36:48;43.33;;;40.92;;
33644;SDS011;19986;48.190;16.366;2023-05-10T03:39:13;44.58;;;42.00;;
33644;SDS011;19986;48.190;16.366;2023-05-10T03:41:39;43.90;;;41.50;;
33644;SDS011;19986;48.190;16.366;2023-05-10T03:44:05;43.63;;;41.38;;
33644;SDS011;19986;48.190;16.366;2023-05-10T03:46:31;44.72;;;42.53;;
33644;SDS011;19986;48.190;16.366;2023-05-10T03:48:57;43.03;;;40.72;;
33644;SDS011;19986;48.190;16.366;2023-05-10T03:51:23;42.72;;;40.33;;
33644;SDS011;19986;48.190;16.366;2023-05-10T03:53:53;43.35;;;41.15;;
33644;SDS011;19986;48.190;16.366;2023-05-10T03:56:21;43.17;;;40.67;;
33644;SDS011;19986;48.190;16.366;2023-05-10T03:58:47;43.45;;;41.08;;
33644;SDS011;19986;48.190;16.366;2023-05-10T04:01:14;46.55;;;44.05;;
33644;SDS011;19986;48.190;16.366;2023-05-10T04:03:40;42.83;;;40.63;;
33644;SDS011;19986;48.190;16.366;2023-05-10T04:06:06;43.38;;;40.97;;
33644;SDS011;19986;48.190;16.366;2023-05-10T04:08:34;46.08;;;42.88;;
33644;SDS011;19986;48.190;16.366;2023-05-10T04:11:09;43.70;;;41.20;;
33644;SDS011;19986;48.190;16.366;2023-05-10T04:13:37;44.33;;;41.78;;
33644;SDS011;19986;48.190;16.366;2023-05-10T04:16:03;43.13;;;40.75;;
33644;SDS011;19986;48.190;16.366;2023-05-10T04:18:30;43.88;;;41.67;;
33644;SDS011;19986;48.190;16.366;2023-05-10T04:20:56;44.70;;;42.10;;
33644;SDS011;19986;48.190;16.366;2023-05-10T04:23:22;44.60;;;42.10;;
33644;SDS011;19986;48.190;16.366;2023-05-10T04:25:48;44.35;;;42.15;;
33644;SDS011;19986;48.190;16.366;2023-05-10T04:28:14;43.70;;;41.33;;
33644;SDS011;19986;48.190;16.366;2023-05-10T04:30:40;41.85;;;39.65;;
33644;SDS011;19986;48.190;16.366;2023-05-10T04:33:06;45.10;;;42.63;;
33644;SDS011;19986;48.190;16.366;2023-05-10T04:35:32;42.90;;;40.58;;
33644;SDS011;19986;48.190;16.366;2023-05-10T04:37:59;46.88;;;44.22;;
33644;SDS011;19986;48.190;16.366;2023-05-10T04:40:25;45.53;;;42.88;;
33644;SDS011;19986;48.190;16.366;2023-05-10T04:42:51;44.25;;;41.72;;
33644;SDS011;19986;48.190;16.366;2023-05-10T04:45:17;46.60;;;44.00;;
33644;SDS011;19986;48.190;16.366;2023-05-10T04:47:43;44.65;;;42.25;;
33644;SDS011;19986;48.190;16.366;2023-05-10T04:50:08;47.47;;;44.75;;
33644;SDS011;19986;48.190;16.366;2023-05-10T04:52:34;45.47;;;42.85;;
33644;SDS011;19986;48.190;16.366;2023-05-10T04:55:01;43.83;;;41.22;;
33644;SDS011;19986;48.190;16.366;2023-05-10T04:57:27;42.28;;;40.08;;
33644;SDS011;19986;48.190;16.366;2023-05-10T04:59:53;42.10;;;39.90;;
33644;SDS011;19986;48.190;16.366;2023-05-10T05:02:19;41.92;;;39.63;;
33644;SDS011;19986;48.190;16.366;2023-05-10T05:04:45;43.60;;;41.25;;
33644;SDS011;19986;48.190;16.366;2023-05-10T05:07:10;44.50;;;42.22;;
33644;SDS011;19986;48.190;16.366;2023-05-10T05:09:36;44.28;;;41.80;;
33644;SDS011;19986;48.190;16.366;2023-05-10T05:12:02;43.60;;;41.03;;
33644;SDS011;19986;48.190;16.366;2023-05-10T05:14:28;43.85;;;41.45;;
33644;SDS011;19986;48.190;16.366;2023-05-10T05:16:54;43.83;;;41.42;;
33644;SDS011;19986;48.190;16.366;2023-05-10T05:19:21;43.92;;;41.15;;
33644;SDS011;19986;48.190;16.366;2023-05-10T05:21:47;42.88;;;40.55;;
33644;SDS011;19986;48.190;16.366;2023-05-10T05:24:13;43.70;;;41.08;;
33644;SDS011;19986;48.190;16.366;2023-05-10T05:26:39;43.88;;;41.60;;
33644;SDS011;19986;48.190;16.366;2023-05-10T05:29:05;44.08;;;41.38;;
33644;SDS011;19986;48.190;16.366;2023-05-10T05:31:45;43.05;;;40.67;;
33644;SDS011;19986;48.190;16.366;2023-05-10T05:34:11;42.85;;;40.38;;
33644;SDS011;19986;48.190;16.366;2023-05-10T05:36:37;44.38;;;41.83;;
33644;SDS011;19986;48.190;16.366;2023-05-10T05:39:06;41.92;;;39.50;;
33644;SDS011;19986;48.190;16.366;2023-05-10T05:41:31;43.78;;;41.22;;
33644;SDS011;19986;48.190;16.366;2023-05-10T05:43:57;41.85;;;39.30;;
33644;SDS011;19986;48.190;16.366;2023-05-10T05:46:23;42.28;;;39.78;;
33644;SDS011;19986;48.190;16.366;2023-05-10T05:48:49;43.55;;;40.90;;
33644;SDS011;19986;48.190;16.366;2023-05-10T05:51:15;43.15;;;40.40;;
33644;SDS011;19986;48.190;16.366;2023-05-10T05:53:41;41.58;;;39.13;;
33644;SDS011;19986;48.190;16.366;2023-05-10T05:56:07;43.50;;;41.00;;
33644;SDS011;19986;48.190;16.366;2023-05-10T05:58:34;43.10;;;40.80;;
33644;SDS011;19986;48.190;16.366;2023-05-10T06:01:00;42.28;;;39.88;;
33644;SDS011;19986;48.190;16.366;2023-05-10T06:03:26;41.95;;;39.60;;
33644;SDS011;19986;48.190;16.366;2023-05-10T06:05:52;43.50;;;41.05;;
33644;SDS011;19986;48.190;16.366;2023-05-10T06:08:18;43.10;;;40.40;;
33644;SDS011;19986;48.190;16.366;2023-05-10T06:10:45;42.63;;;39.35;;
33644;SDS011;19986;48.190;16.366;2023-05-10T06:13:11;42.60;;;40.40;;
33644;SDS011;19986;48.190;16.366;2023-05-10T06:15:37;39.72;;;37.15;;
33644;SDS011;19986;48.190;16.366;2023-05-10T06:18:03;43.95;;;41.17;;
33644;SDS011;19986;48.190;16.366;2023-05-10T06:20:29;41.20;;;38.38;;
33644;SDS011;19986;48.190;16.366;2023-05-10T06:22:56;39.58;;;37.10;;
33644;SDS011;19986;48.190;16.366;2023-05-10T06:25:23;41.95;;;39.20;;
33644;SDS011;19986;48.190;16.366;2023-05-10T06:27:49;42.00;;;39.58;;
33644;SDS011;19986;48.190;16.366;2023-05-10T06:30:15;41.15;;;38.50;;
33644;SDS011;19986;48.190;16.366;2023-05-10T06:32:41;40.25;;;37.95;;
33644;SDS011;19986;48.190;16.366;2023-05-10T06:35:09;39.55;;;37.42;;
33644;SDS011;19986;48.190;16.366;2023-05-10T06:37:35;42.20;;;38.88;;
33644;SDS011;19986;48.190;16.366;2023-05-10T06:40:01;42.08;;;39.58;;
33644;SDS011;19986;48.190;16.366;2023-05-10T06:42:27;40.38;;;37.97;;
33644;SDS011;19986;48.190;16.366;2023-05-10T06:44:53;40.88;;;38.28;;
33644;SDS011;19986;48.190;16.366;2023-05-10T06:47:18;40.65;;;38.03;;
33644;SDS011;19986;48.190;16.366;2023-05-10T06:49:44;42.10;;;39.35;;
33644;SDS011;19986;48.190;16.366;2023-05-10T06:52:10;40.88;;;38.53;;
33644;SDS011;19986;48.190;16.366;2023-05-10T06:54:36;41.70;;;39.25;;
33644;SDS011;19986;48.190;16.366;2023-05-10T06:57:04;41.95;;;39.70;;
33644;SDS011;19986;48.190;16.366;2023-05-10T06:59:30;39.40;;;36.95;;
33644;SDS011;19986;48.190;16.366;2023-05-10T07:01:56;39.00;;;36.50;;
33644;SDS011;19986;48.190;16.366;2023-05-10T07:04:22;40.55;;;38.25;;
33644;SDS011;19986;48.190;16.366;2023-05-10T07:06:48;39.35;;;36.85;;
33644;SDS011;19986;48.190;16.366;2023-05-10T07:09:14;42.20;;;39.75;;
33644;SDS011;19986;48.190;16.366;2023-05-10T07:11:56;40.50;;;38.30;;
33644;SDS011;19986;48.190;16.366;2023-05-10T07:14:22;39.58;;;37.45;;
33644;SDS011;19986;48.190;16.366;2023-05-10T07:16:48;40.53;;;38.15;;
33644;SDS011;19986;48.190;16.366;2023-05-10T07:19:14;41.97;;;39.72;;
33644;SDS011;19986;48.190;16.366;2023-05-10T07:21:40;41.60;;;39.20;;
33644;SDS011;19986;48.190;16.366;2023-05-10T07:24:08;41.25;;;38.70;;
33644;SDS011;19986;48.190;16.366;2023-05-10T07:26:34;42.22;;;39.70;;
33644;SDS011;19986;48.190;16.366;2023-05-10T07:29:00;39.45;;;37.15;;
33644;SDS011;19986;48.190;16.366;2023-05-10T07:31:26;39.28;;;37.08;;
33644;SDS011;19986;48.190;16.366;2023-05-10T07:33:52;41.10;;;38.80;;
33644;SDS011;19986;48.190;16.366;2023-05-10T07:36:33;41.20;;;38.85;;
33644;SDS011;19986;48.190;16.366;2023-05-10T07:38:59;40.38;;;38.10;;
33644;SDS011;19986;48.190;16.366;2023-05-10T07:41:25;40.38;;;38.13;;
33644;SDS011;19986;48.190;16.366;2023-05-10T07:43:51;40.45;;;37.95;;
33644;SDS011;19986;48.190;16.366;2023-05-10T07:46:17;41.50;;;38.78;;
33644;SDS011;19986;48.190;16.366;2023-05-10T07:48:44;40.20;;;37.80;;
33644;SDS011;19986;48.190;16.366;2023-05-10T07:51:11;40.90;;;38.10;;
33644;SDS011;19986;48.190;16.366;2023-05-10T07:53:37;39.83;;;37.65;;
33644;SDS011;19986;48.190;16.366;2023-05-10T07:56:25;40.85;;;38.65;;
33644;SDS011;19986;48.190;16.366;2023-05-10T07:59:01;41.35;;;38.85;;
33644;SDS011;19986;48.190;16.366;2023-05-10T08:01:32;41.65;;;39.22;;
33644;SDS011;19986;48.190;16.366;2023-05-10T08:03:59;39.45;;;37.13;;
33644;SDS011;19986;48.190;16.366;2023-05-10T08:06:25;41.92;;;39.53;;
33644;SDS011;19986;48.190;16.366;2023-05-10T08:08:53;41.95;;;39.60;;
33644;SDS011;19986;48.190;16.366;2023-05-10T08:11:19;41.88;;;39.42;;
33644;SDS011;19986;48.190;16.366;2023-05-10T08:13:46;40.28;;;37.83;;
33644;SDS011;19986;48.190;16.366;2023-05-10T08:16:14;39.53;;;37.13;;
33644;SDS011;19986;48.190;16.366;2023-05-10T08:18:40;41.03;;;38.53;;
33644;SDS011;19986;48.190;16.366;2023-05-10T08:21:06;40.90;;;37.60;;
33644;SDS011;19986;48.190;16.366;2023-05-10T08:23:32;39.80;;;37.70;;
33644;SDS011;19986;48.190;16.366;2023-05-10T08:25:58;41.67;;;39.28;;
33644;SDS011;19986;48.190;16.366;2023-05-10T08:28:25;37.13;;;34.92;;
33644;SDS011;19986;48.190;16.366;2023-05-10T08:30:51;37.72;;;35.53;;
33644;SDS011;19986;48.190;16.366;2023-05-10T08:33:17;40.83;;;38.70;;
33644;SDS011;19986;48.190;16.366;2023-05-10T08:35:44;40.60;;;38.40;;
33644;SDS011;19986;48.190;16.366;2023-05-10T08:38:10;39.97;;;37.83;;
33644;SDS011;19986;48.190;16.366;2023-05-10T08:40:37;39.15;;;36.85;;
33644;SDS011;19986;48.190;16.366;2023-05-10T08:43:06;39.92;;;37.40;;
33644;SDS011;19986;48.190;16.366;2023-05-10T08:45:36;38.88;;;36.60;;
33644;SDS011;19986;48.190;16.366;2023-05-10T08:48:06;40.13;;;37.70;;
33644;SDS011;19986;48.190;16.366;2023-05-10T08:50:37;39.40;;;37.20;;
33644;SDS011;19986;48.190;16.366;2023-05-10T08:53:05;37.13;;;35.03;;
33644;SDS011;19986;48.190;16.366;2023-05-10T08:55:35;38.67;;;36.72;;
33644;SDS011;19986;48.190;16.366;2023-05-10T08:58:03;35.35;;;33.55;;
33644;SDS011;19986;48.190;16.366;2023-05-10T09:00:30;36.92;;;34.65;;
33644;SDS011;19986;48.190;16.366;2023-05-10T09:02:56;36.78;;;34.88;;
33644;SDS011;19986;48.190;16.366;2023-05-10T09:05:23;37.60;;;35.70;;
33644;SDS011;19986;48.190;16.366;2023-05-10T09:07:49;38.05;;;35.40;;
33644;SDS011;19986;48.190;16.366;2023-05-10T09:10:18;36.30;;;34.50;;
33644;SDS011;19986;48.190;16.366;2023-05-10T09:12:46;38.10;;;35.70;;
33644;SDS011;19986;48.190;16.366;2023-05-10T09:15:16;36.92;;;34.88;;
33644;SDS011;19986;48.190;16.366;2023-05-10T09:17:44;36.75;;;34.47;;
33644;SDS011;19986;48.190;16.366;2023-05-10T09:20:10;35.38;;;33.47;;
33644;SDS011;19986;48.190;16.366;2023-05-10T09:22:36;36.00;;;34.20;;
33644;SDS011;19986;48.190;16.366;2023-05-10T09:25:06;34.67;;;32.78;;
33644;SDS011;19986;48.190;16.366;2023-05-10T09:27:34;36.13;;;34.00;;
33644;SDS011;19986;48.190;16.366;2023-05-10T09:30:01;34.67;;;32.88;;
33644;SDS011;19986;48.190;16.366;2023-05-10T09:32:40;35.40;;;33.70;;
33644;SDS011;19986;48.190;16.366;2023-05-10T09:37:41;33.55;;;31.80;;
33644;SDS011;19986;48.190;16.366;2023-05-10T09:40:12;32.53;;;30.70;;
33644;SDS011;19986;48.190;16.366;2023-05-10T09:42:38;32.25;;;30.60;;
33644;SDS011;19986;48.190;16.366;2023-05-10T09:45:06;33.40;;;31.50;;
33644;SDS011;19986;48.190;16.366;2023-05-10T09:47:33;31.40;;;29.80;;
33644;SDS011;19986;48.190;16.366;2023-05-10T09:50:03;31.60;;;30.05;;
33644;SDS011;19986;48.190;16.366;2023-05-10T09:52:31;30.75;;;29.15;;
33644;SDS011;19986;48.190;16.366;2023-05-10T09:55:43;30.73;;;29.13;;
33644;SDS011;19986;48.190;16.366;2023-05-10T09:58:11;31.73;;;29.92;;
33644;SDS011;19986;48.190;16.366;2023-05-10T10:00:45;30.20;;;28.70;;
33644;SDS011;19986;48.190;16.366;2023-05-10T10:03:16;29.50;;;28.10;;
33644;SDS011;19986;48.190;16.366;2023-05-10T10:05:46;28.50;;;27.10;;
33644;SDS011;19986;48.190;16.366;2023-05-10T10:08:14;30.33;;;28.70;;
33644;SDS011;19986;48.190;16.366;2023-05-10T10:10:41;29.92;;;28.45;;
33644;SDS011;19986;48.190;16.366;2023-05-10T10:13:09;29.30;;;27.67;;
33644;SDS011;19986;48.190;16.366;2023-05-10T10:15:35;30.45;;;28.77;;
33644;SDS011;19986;48.190;16.366;2023-05-10T10:18:01;30.65;;;29.25;;
33644;SDS011;19986;48.190;16.366;2023-05-10T10:20:29;30.35;;;28.63;;
33644;SDS011;19986;48.190;16.366;2023-05-10T10:22:55;29.27;;;27.65;;
33644;SDS011;19986;48.190;16.366;2023-05-10T10:25:20;30.25;;;28.65;;
33644;SDS011;19986;48.190;16.366;2023-05-10T10:30:25;31.15;;;29.45;;
33644;SDS011;19986;48.190;16.366;2023-05-10T10:35:58;32.35;;;30.17;;
33644;SDS011;19986;48.190;16.366;2023-05-10T10:38:25;30.15;;;28.65;;
33644;SDS011;19986;48.190;16.366;2023-05-10T10:41:10;29.98;;;28.45;;
33644;SDS011;19986;48.190;16.366;2023-05-10T10:44:38;30.77;;;28.88;;
33644;SDS011;19986;48.190;16.366;2023-05-10T10:52:13;30.20;;;28.80;;
33644;SDS011;19986;48.190;16.366;2023-05-10T10:54:59;31.20;;;29.63;;
33644;SDS011;19986;48.190;16.366;2023-05-10T10:57:26;30.42;;;28.88;;
33644;SDS011;19986;48.190;16.366;2023-05-10T11:02:44;32.55;;;30.95;;
33644;SDS011;19986;48.190;16.366;2023-05-10T11:08:09;29.98;;;28.50;;
33644;SDS011;19986;48.190;16.366;2023-05-10T11:10:38;30.13;;;28.42;;
33644;SDS011;19986;48.190;16.366;2023-05-10T11:13:06;29.85;;;27.77;;
33644;SDS011;19986;48.190;16.366;2023-05-10T11:15:34;30.65;;;28.83;;
33644;SDS011;19986;48.190;16.366;2023-05-10T11:18:19;31.77;;;30.17;;
33644;SDS011;19986;48.190;16.366;2023-05-10T11:20:52;29.80;;;28.17;;
33644;SDS011;19986;48.190;16.366;2023-05-10T11:23:20;30.42;;;28.60;;
33644;SDS011;19986;48.190;16.366;2023-05-10T11:25:47;30.40;;;28.58;;
33644;SDS011;19986;48.190;16.366;2023-05-10T11:28:16;30.70;;;29.15;;
33644;SDS011;19986;48.190;16.366;2023-05-10T11:30:43;31.23;;;29.63;;
33644;SDS011;19986;48.190;16.366;2023-05-10T11:33:14;30.40;;;28.42;;
33644;SDS011;19986;48.190;16.366;2023-05-10T11:35:44;30.40;;;28.67;;
33644;SDS011;19986;48.190;16.366;2023-05-10T11:38:11;30.25;;;28.75;;
33644;SDS011;19986;48.190;16.366;2023-05-10T11:40:39;31.95;;;30.38;;
33644;SDS011;19986;48.190;16.366;2023-05-10T11:43:07;30.05;;;28.27;;
33644;SDS011;19986;48.190;16.366;2023-05-10T11:45:35;31.15;;;29.55;;
33644;SDS011;19986;48.190;16.366;2023-05-10T11:48:01;32.75;;;31.05;;
33644;SDS011;19986;48.190;16.366;2023-05-10T11:50:28;31.75;;;29.95;;
33644;SDS011;19986;48.190;16.366;2023-05-10T11:52:55;34.15;;;31.40;;
33644;SDS011;19986;48.190;16.366;2023-05-10T11:55:22;33.63;;;30.88;;
33644;SDS011;19986;48.190;16.366;2023-05-10T11:57:53;32.10;;;30.30;;
33644;SDS011;19986;48.190;16.366;2023-05-10T12:00:20;30.65;;;29.02;;
33644;SDS011;19986;48.190;16.366;2023-05-10T12:02:46;33.28;;;31.48;;
33644;SDS011;19986;48.190;16.366;2023-05-10T12:05:13;31.85;;;30.17;;
33644;SDS011;19986;48.190;16.366;2023-05-10T12:07:39;31.60;;;30.08;;
33644;SDS011;19986;48.190;16.366;2023-05-10T12:10:09;32.80;;;31.00;;
33644;SDS011;19986;48.190;16.366;2023-05-10T12:12:43;29.98;;;28.48;;
33644;SDS011;19986;48.190;16.366;2023-05-10T12:15:11;31.88;;;30.17;;
33644;SDS011;19986;48.190;16.366;2023-05-10T12:17:38;31.88;;;30.02;;
33644;SDS011;19986;48.190;16.366;2023-05-10T12:20:27;32.20;;;30.60;;
33644;SDS011;19986;48.190;16.366;2023-05-10T12:22:53;29.85;;;28.40;;
33644;SDS011;19986;48.190;16.366;2023-05-10T12:25:21;31.17;;;29.67;;
33644;SDS011;19986;48.190;16.366;2023-05-10T12:27:49;31.50;;;29.80;;
33644;SDS011;19986;48.190;16.366;2023-05-10T12:30:19;31.83;;;30.33;;
33644;SDS011;19986;48.190;16.366;2023-05-10T12:32:50;33.25;;;31.65;;
33644;SDS011;19986;48.190;16.366;2023-05-10T12:35:17;32.15;;;30.55;;
33644;SDS011;19986;48.190;16.366;2023-05-10T12:37:50;33.50;;;31.58;;
33644;SDS011;19986;48.190;16.366;2023-05-10T12:40:19;31.88;;;30.38;;
33644;SDS011;19986;48.190;16.366;2023-05-10T12:42:45;33.30;;;31.40;;
33644;SDS011;19986;48.190;16.366;2023-05-10T12:45:11;32.80;;;31.15;;
33644;SDS011;19986;48.190;16.366;2023-05-10T12:47:37;32.35;;;30.75;;
33644;SDS011;19986;48.190;16.366;2023-05-10T12:50:06;32.00;;;30.35;;
33644;SDS011;19986;48.190;16.366;2023-05-10T12:52:32;33.17;;;31.17;;
33644;SDS011;19986;48.190;16.366;2023-05-10T12:54:58;32.80;;;31.10;;
33644;SDS011;19986;48.190;16.366;2023-05-10T12:57:25;33.13;;;31.52;;
33644;SDS011;19986;48.190;16.366;2023-05-10T12:59:51;33.50;;;31.75;;
33644;SDS011;19986;48.190;16.366;2023-05-10T13:02:17;32.78;;;31.17;;
33644;SDS011;19986;48.190;16.366;2023-05-10T13:04:43;33.83;;;32.17;;
33644;SDS011;19986;48.190;16.366;2023-05-10T13:07:11;34.67;;;32.65;;
33644;SDS011;19986;48.190;16.366;2023-05-10T13:09:37;32.33;;;30.73;;
33644;SDS011;19986;48.190;16.366;2023-05-10T13:12:03;33.75;;;32.08;;
33644;SDS011;19986;48.190;16.366;2023-05-10T13:14:29;33.75;;;32.15;;
33644;SDS011;19986;48.190;16.366;2023-05-10T13:16:56;33.28;;;31.15;;
33644;SDS011;19986;48.190;16.366;2023-05-10T13:19:22;34.35;;;32.47;;
33644;SDS011;19986;48.190;16.366;2023-05-10T13:21:47;33.53;;;31.65;;
33644;SDS011;19986;48.190;16.366;2023-05-10T13:24:13;32.78;;;31.13;;
33644;SDS011;19986;48.190;16.366;2023-05-10T13:26:43;33.33;;;31.30;;
33644;SDS011;19986;48.190;16.366;2023-05-10T13:29:08;33.15;;;31.55;;
33644;SDS011;19986;48.190;16.366;2023-05-10T13:31:35;34.95;;;32.95;;
33644;SDS011;19986;48.190;16.366;2023-05-10T13:34:01;33.10;;;31.42;;
33644;SDS011;19986;48.190;16.366;2023-05-10T13:36:27;33.53;;;31.48;;
33644;SDS011;19986;48.190;16.366;2023-05-10T13:38:53;34.55;;;32.72;;
33644;SDS011;19986;48.190;16.366;2023-05-10T13:41:19;33.97;;;32.25;;
33644;SDS011;19986;48.190;16.366;2023-05-10T13:43:45;33.10;;;31.60;;
33644;SDS011;19986;48.190;16.366;2023-05-10T13:46:13;32.20;;;30.58;;
33644;SDS011;19986;48.190;16.366;2023-05-10T13:48:39;32.90;;;31.15;;
33644;SDS011;19986;48.190;16.366;2023-05-10T13:51:05;33.83;;;31.90;;
33644;SDS011;19986;48.190;16.366;2023-05-10T13:53:31;32.90;;;31.10;;
33644;SDS011;19986;48.190;16.366;2023-05-10T13:55:57;34.15;;;32.28;;
33644;SDS011;19986;48.190;16.366;2023-05-10T13:58:23;33.30;;;31.50;;
33644;SDS011;19986;48.190;16.366;2023-05-10T14:00:49;33.95;;;32.10;;
33644;SDS011;19986;48.190;16.366;2023-05-10T14:03:14;35.55;;;33.70;;
33644;SDS011;19986;48.190;16.366;2023-05-10T14:05:40;33.85;;;32.15;;
33644;SDS011;19986;48.190;16.366;2023-05-10T14:08:06;33.38;;;31.75;;
33644;SDS011;19986;48.190;16.366;2023-05-10T14:10:34;34.28;;;32.58;;
33644;SDS011;19986;48.190;16.366;2023-05-10T14:13:00;34.03;;;32.38;;
33644;SDS011;19986;48.190;16.366;2023-05-10T14:15:26;34.55;;;32.95;;
33644;SDS011;19986;48.190;16.366;2023-05-10T14:17:52;33.33;;;31.73;;
33644;SDS011;19986;48.190;16.366;2023-05-10T14:20:18;33.45;;;31.75;;
33644;SDS011;19986;48.190;16.366;2023-05-10T14:22:43;34.05;;;32.35;;
33644;SDS011;19986;48.190;16.366;2023-05-10T14:25:09;32.85;;;31.15;;
33644;SDS011;19986;48.190;16.366;2023-05-10T14:27:35;34.60;;;32.85;;
33644;SDS011;19986;48.190;16.366;2023-05-10T14:30:01;33.83;;;32.22;;
33644;SDS011;19986;48.190;16.366;2023-05-10T14:32:27;35.47;;;33.72;;
33644;SDS011;19986;48.190;16.366;2023-05-10T14:34:53;33.58;;;31.90;;
33644;SDS011;19986;48.190;16.366;2023-05-10T14:37:20;33.03;;;31.42;;
33644;SDS011;19986;48.190;16.366;2023-05-10T14:39:46;34.85;;;33.20;;
33644;SDS011;19986;48.190;16.366;2023-05-10T14:42:13;33.55;;;31.83;;
33644;SDS011;19986;48.190;16.366;2023-05-10T14:44:41;33.05;;;31.35;;
33644;SDS011;19986;48.190;16.366;2023-05-10T14:47:06;33.50;;;31.73;;
33644;SDS011;19986;48.190;16.366;2023-05-10T14:49:32;33.85;;;32.05;;
33644;SDS011;19986;48.190;16.366;2023-05-10T14:51:58;35.08;;;33.38;;
33644;SDS011;19986;48.190;16.366;2023-05-10T14:54:24;33.40;;;31.80;;